Terminal Aerodrome Forecast
Issued by NWS

Home | Current Version | Previous Version | Text Only | Print | Product List | Glossary On
Versions: 1 2 3 4 5 6 7 8 9 10 11 12 13 14 15 16 17 18 19 20 21 22 23 24 25 26 27 28 29 30
000
FTUS43 KDLH 022300
TAFHYR
TAF
KHYR 022336Z 0300/0324 22011KT P6SM SCT060
     FM030100 21003KT P6SM SCT060
     FM031600 20011KT P6SM SCT150
     FM032100 16006KT P6SM VCSH SCT050 BKN100=

USA.gov is the U.S. government's official web portal to all federal, state and local government web resources and services.